KMMH

Details ICAO KMMH (MMH)
Name Mammoth Yosemite
Region United States
Timezone America/Los_Angeles (UTC-7.0)
Plans Departing 36
Arriving 63
Stats Elevation 7,128 ft / 2,173 m (AMSL)
Location 37.624049° -118.838737°
Runways 1
Magnetic Variation 12.781° E
Sunrise 2018-05-26 12:39:40 UTC / 2018-05-26 05:39:40 Local
Sunset 2018-05-27 03:08:05 UTC / 2018-05-26 20:08:05 Local
Advertisement - Login to hide

Runways

ID Width Length Bearing (true) Bearing (mag) Surface Threshold Offset Overrun Length
09 98 ft / 30 m 6,987 ft / 2,130 m 109.02° 96.24° Asphalt 0 ft / 0 m 2,999 ft / 914 m
27 98 ft / 30 m 6,987 ft / 2,130 m 289.03° 276.25° Asphalt 0 ft / 0 m 0 ft / 0 m

Map

Weather


0- 5 10 15 20 25 30 35+ Temperature / ° C

Clouds and Precipitation
Forecast for 2018-05-26 12:00 UTC. Updated an hour ago

Ground ~20,000 ft ~40,000 ft Winds

METAR

KMMH 261215Z AUTO 27006KT 10SM CLR 02/M01 A3001 RMK AO2 T00161007

TAF

TAF KMMH 261120Z 2612/2712 28008KT P6SM SCT120 FM262000 30010G19KT P6SM VCSH SCT060 BKN080 FM270500 28008KT P6SM SCT080 SCT140

Frequencies

Recorded 118.05 MHz AWOS 3
Unicom 122.80 MHz CTAF/UNICOM
Warning: Do not use this data for real-world aviation or navigation. No guarantee of current accuracy is given.